Terminal Aerodrome Forecast
Issued by NWS

Home | Current Version | Previous Version | Text Only | Print | Product List | Glossary On
Versions: 1 2 3 4 5 6 7 8 9 10 11 12 13 14 15 16
000
FTUS43 KICT 030520
TAFSLN
TAF
KSLN 030520Z 0306/0406 16013KT P6SM SCT200
     FM031400 18016G23KT P6SM BKN100
     FM031900 18021G31KT P6SM FEW120
     FM040100 16013KT P6SM FEW150=

USA.gov is the U.S. government's official web portal to all federal, state and local government web resources and services.